Turner, Montana
Current Conditions -  °F | °C
As of 2:04 AM on Friday 28 Nov 2014 (Local Time) from KHVR Reporting Station
Moderate Fog Moderate Fog  
Wind Chill: 22°   Ceiling: 200
Heat Index: 27°   Visibility: 0.25mi
Dew Point: 26°   Wind: 5mph
Humidity: 96%   Direction: 110°ESE
Pressure: 29.61"   Gusts: NA
Location:  48.84°N, 108.41°W
Report Text: KHVR 280904Z AUTO 11004KT 1/4SM FZFG VV002 M03/M03 A2961 RMK AO2 I1001 T10281033
Loading
Personal Weather Stations






























Interactive Weather Map New forecast layout! Learn more

10-Day Weather Forecast

Advertisements
Track Severe Weather on mobile